createdAt,value
2023-03-08T00:00:26.284Z,2.5
2023-03-08T00:01:34.976Z,2.5
2023-03-08T00:02:44.648Z,2.6
2023-03-08T00:03:53.441Z,2.3
2023-03-08T00:05:03.061Z,2.1
2023-03-08T00:06:11.648Z,2.1
2023-03-08T00:07:20.292Z,1.9
2023-03-08T00:08:29.967Z,2.5
2023-03-08T00:09:37.670Z,2.4
2023-03-08T00:10:47.367Z,2.2
2023-03-08T00:11:57.017Z,2.3
2023-03-08T00:13:05.709Z,2.7
2023-03-08T00:14:15.408Z,2.8
2023-03-08T00:15:24.075Z,2.7
2023-03-08T00:16:31.750Z,2.4
2023-03-08T00:17:41.399Z,2.4
2023-03-08T00:18:51.071Z,2.3
2023-03-08T00:19:58.745Z,2.5
2023-03-08T00:21:08.426Z,2.6
2023-03-08T00:22:18.106Z,2.5
2023-03-08T00:23:26.746Z,2.8
2023-03-08T00:24:36.473Z,2.5
2023-03-08T00:25:46.158Z,2.3
2023-03-08T00:26:55.839Z,2.2
2023-03-08T00:28:05.499Z,2
2023-03-08T00:29:14.290Z,2.2
2023-03-08T00:30:23.930Z,1.9
2023-03-08T00:31:33.693Z,2.1
2023-03-08T00:32:41.382Z,1.9
2023-03-08T00:33:51.028Z,1.9
2023-03-08T00:34:59.832Z,1.7
2023-03-08T00:36:08.518Z,1.7
2023-03-08T00:37:18.222Z,1.8
2023-03-08T00:38:27.933Z,1.8
2023-03-08T00:39:37.611Z,1.6
2023-03-08T00:40:47.275Z,1.5
2023-03-08T00:41:54.946Z,1.9
2023-03-08T00:43:04.643Z,1.4
2023-03-08T00:44:12.296Z,1.8
2023-03-08T00:45:20.995Z,1.7
2023-03-08T00:46:30.687Z,1.6
2023-03-08T00:47:40.361Z,1.6
2023-03-08T00:48:51.042Z,1.8
2023-03-08T00:50:00.717Z,2.2
2023-03-08T00:51:09.390Z,1.7
2023-03-08T00:52:19.105Z,2
2023-03-08T00:53:27.752Z,2.1
2023-03-08T00:54:37.447Z,2.1
2023-03-08T00:55:47.149Z,2.5
2023-03-08T00:56:54.804Z,2
2023-03-08T00:58:03.457Z,2
2023-03-08T00:59:13.121Z,2.1
2023-03-08T01:00:22.843Z,1.7
2023-03-08T01:01:32.500Z,1.8
2023-03-08T01:02:42.174Z,2.4
2023-03-08T01:03:51.958Z,2.3
2023-03-08T01:05:01.605Z,2.1
2023-03-08T01:06:10.263Z,1.8
2023-03-08T01:07:19.942Z,1.8
2023-03-08T01:08:28.629Z,1.6
2023-03-08T01:09:37.281Z,2.2
2023-03-08T01:10:47.000Z,2.4
2023-03-08T01:11:55.630Z,2.1
2023-03-08T01:13:05.296Z,2
2023-03-08T01:14:14.966Z,2.3
2023-03-08T01:15:22.658Z,2.3
2023-03-08T01:16:32.380Z,2.7
2023-03-08T01:17:42.045Z,2.1
2023-03-08T01:18:50.698Z,2.2
2023-03-08T01:20:00.358Z,2.1
2023-03-08T01:21:09.045Z,2
2023-03-08T01:22:17.706Z,2.4
2023-03-08T01:23:27.372Z,2.8
2023-03-08T01:24:35.025Z,2.7
2023-03-08T01:25:44.747Z,2.1
2023-03-08T01:26:54.474Z,1.7
2023-03-08T01:28:02.093Z,2.4
2023-03-08T01:29:11.795Z,2.2
2023-03-08T01:30:19.440Z,1.8
2023-03-08T01:31:28.152Z,1.9
2023-03-08T01:32:37.859Z,2.1
2023-03-08T01:33:44.470Z,2
2023-03-08T01:34:54.116Z,1.8
2023-03-08T01:36:03.887Z,2.5
2023-03-08T01:37:12.507Z,2.4
2023-03-08T01:38:22.173Z,2.2
2023-03-08T01:39:29.830Z,1.5
2023-03-08T01:40:39.491Z,1.7
2023-03-08T01:41:49.198Z,1.7
2023-03-08T01:42:57.893Z,1.7
2023-03-08T01:44:06.557Z,2.2
2023-03-08T01:45:16.225Z,1.5
2023-03-08T01:46:23.901Z,1.8
2023-03-08T01:47:33.573Z,2
2023-03-08T01:48:42.274Z,2.1
2023-03-08T01:49:51.923Z,1.8
2023-03-08T01:51:01.617Z,1.6
2023-03-08T01:52:09.286Z,2.1
2023-03-08T01:53:18.925Z,2.6
2023-03-08T01:54:28.592Z,2.1
2023-03-08T01:55:36.264Z,2.4
2023-03-08T01:56:44.973Z,2.3
2023-03-08T01:57:53.649Z,2.5
2023-03-08T01:59:02.337Z,3.1
2023-03-08T02:00:11.985Z,2.2
2023-03-08T02:01:19.721Z,2.9
2023-03-08T02:02:30.325Z,2.9
2023-03-08T02:03:38.983Z,2.4
2023-03-08T02:04:47.634Z,2.7
2023-03-08T02:05:57.397Z,3
2023-03-08T02:07:06.081Z,2.5
2023-03-08T02:08:13.752Z,3.5
2023-03-08T02:09:23.406Z,4.4
2023-03-08T02:10:32.110Z,3.7
2023-03-08T02:11:41.829Z,3
2023-03-08T02:12:49.494Z,2.5
2023-03-08T02:13:58.160Z,1.9
2023-03-08T02:15:07.929Z,1.6
2023-03-08T02:16:17.568Z,1.9
2023-03-08T02:17:25.222Z,1.9
2023-03-08T02:18:34.899Z,1.2
2023-03-08T02:19:43.568Z,1.4
2023-03-08T02:20:52.243Z,1.2
2023-03-08T02:22:02.259Z,1.5
2023-03-08T02:23:10.927Z,1.8
2023-03-08T02:24:20.600Z,1.4
2023-03-08T02:25:30.277Z,1.8
2023-03-08T02:26:38.962Z,1.8
2023-03-08T02:27:48.645Z,1.4
2023-03-08T02:28:57.339Z,1.7
2023-03-08T02:30:06.010Z,1.6
2023-03-08T02:31:15.746Z,1.7
2023-03-08T02:32:24.488Z,1.6
2023-03-08T02:33:34.092Z,1.6
2023-03-08T02:34:43.760Z,1.5
2023-03-08T02:35:53.552Z,1.6
2023-03-08T02:37:03.362Z,1.6
2023-03-08T02:38:11.106Z,1.5
2023-03-08T02:39:19.735Z,1.5
2023-03-08T02:40:29.379Z,1.4
2023-03-08T02:41:36.099Z,1.8
2023-03-08T02:42:45.789Z,1.5
2023-03-08T02:43:55.448Z,1.5
2023-03-08T02:45:04.114Z,1.2
2023-03-08T02:46:13.796Z,1.8
2023-03-08T02:47:23.617Z,1.5
2023-03-08T02:48:31.240Z,1.6
2023-03-08T02:49:40.899Z,1.5
2023-03-08T02:50:49.563Z,1.6
2023-03-08T02:51:58.258Z,1.6
2023-03-08T02:53:07.938Z,1.7
2023-03-08T02:54:17.598Z,1.4
2023-03-08T02:55:27.259Z,1.3
2023-03-08T02:56:35.956Z,1.5
2023-03-08T02:57:43.641Z,1.4
2023-03-08T02:58:53.305Z,2
2023-03-08T03:00:02.046Z,1.4
2023-03-08T03:01:10.737Z,1.7
2023-03-08T03:02:20.412Z,2.4
2023-03-08T03:03:29.141Z,2.1
2023-03-08T03:04:38.788Z,2.2
2023-03-08T03:05:48.467Z,2.3
2023-03-08T03:06:57.155Z,3.2
2023-03-08T03:08:06.822Z,2.9
2023-03-08T03:09:16.504Z,2.9
2023-03-08T03:10:25.174Z,3.1
2023-03-08T03:11:34.844Z,3.1
2023-03-08T03:12:42.529Z,3.2
2023-03-08T03:14:11.818Z,2.7
2023-03-08T03:15:16.612Z,2.5
2023-03-08T03:16:26.289Z,2.5
2023-03-08T03:17:34.950Z,2.3
2023-03-08T03:18:44.641Z,2
2023-03-08T03:19:54.332Z,2.5
2023-03-08T03:21:02.998Z,2.3
2023-03-08T03:22:12.709Z,2
2023-03-08T03:23:21.415Z,2.3
2023-03-08T03:24:30.140Z,2.5
2023-03-08T03:25:39.834Z,2.3
2023-03-08T03:26:47.537Z,1.9
2023-03-08T03:27:56.228Z,1.6
2023-03-08T03:29:05.901Z,1.9
2023-03-08T03:30:15.576Z,1.9
2023-03-08T03:34:41.261Z,1.9
2023-03-08T03:35:50.962Z,2
2023-03-08T03:37:00.595Z,2
2023-03-08T03:38:10.363Z,2.4
2023-03-08T03:39:20.045Z,1.7
2023-03-08T03:40:28.703Z,1.8
2023-03-08T03:41:36.381Z,2.5
2023-03-08T03:42:46.077Z,1.8
2023-03-08T03:43:54.725Z,2.1
2023-03-08T03:45:04.488Z,1.9
2023-03-08T03:46:13.202Z,2.2
2023-03-08T03:47:22.859Z,2
2023-03-08T03:48:32.548Z,1.9
2023-03-08T03:49:41.254Z,2
2023-03-08T03:50:49.942Z,2.1
2023-03-08T03:51:59.584Z,2
2023-03-08T03:53:08.295Z,2
2023-03-08T03:54:17.954Z,2
2023-03-08T03:55:27.660Z,1.5
2023-03-08T03:56:35.334Z,2.4
2023-03-08T03:57:45.003Z,2.2
2023-03-08T03:58:52.671Z,2
2023-03-08T04:00:01.375Z,2.2
2023-03-08T04:01:11.099Z,2.2
2023-03-08T04:02:18.726Z,2.3
2023-03-08T04:03:28.500Z,2.3
2023-03-08T04:04:37.096Z,2.2
2023-03-08T04:05:45.779Z,2.3
2023-03-08T04:06:55.493Z,2.6
2023-03-08T04:08:04.161Z,2.4
2023-03-08T04:09:13.837Z,2.4
2023-03-08T04:10:23.572Z,2.6
2023-03-08T04:11:31.251Z,2.8
2023-03-08T04:12:40.929Z,2.9
2023-03-08T04:13:49.648Z,2.8
2023-03-08T04:14:59.317Z,2.7
2023-03-08T04:16:09.047Z,2.7
2023-03-08T04:17:18.742Z,2.7
2023-03-08T04:18:28.371Z,3.2
2023-03-08T04:19:37.033Z,2.8
2023-03-08T04:20:46.704Z,2.9
2023-03-08T04:21:56.405Z,2.7
2023-03-08T04:23:05.103Z,2.9
2023-03-08T04:24:14.774Z,2.7
2023-03-08T04:25:24.492Z,2.7
2023-03-08T04:26:33.150Z,2.8
2023-03-08T04:27:42.853Z,2.4
2023-03-08T04:28:50.576Z,2.9
2023-03-08T04:30:01.244Z,2.6
2023-03-08T04:31:10.931Z,2.7
2023-03-08T04:32:19.577Z,2.4
2023-03-08T04:33:28.261Z,2.9
2023-03-08T04:34:37.966Z,3.1
2023-03-08T04:35:45.647Z,2.6
2023-03-08T04:36:55.298Z,2.6
2023-03-08T04:38:03.972Z,2.6
2023-03-08T04:39:13.726Z,3.1
2023-03-08T04:40:23.375Z,2.5
2023-03-08T04:41:32.029Z,3.1
2023-03-08T04:42:41.703Z,3.3
2023-03-08T04:43:51.405Z,3.6
2023-03-08T04:44:59.088Z,3.4
2023-03-08T04:46:08.791Z,3.2
2023-03-08T04:47:17.499Z,3
2023-03-08T04:48:27.150Z,2.9
2023-03-08T04:49:36.830Z,2.7
2023-03-08T04:50:45.532Z,3
2023-03-08T04:51:54.198Z,3.2
2023-03-08T04:53:03.881Z,3
2023-03-08T04:54:12.560Z,2.6
2023-03-08T04:55:22.330Z,2.3
2023-03-08T04:56:29.977Z,2.4
2023-03-08T04:57:39.663Z,2.4
2023-03-08T04:58:49.371Z,2.3
2023-03-08T04:59:59.014Z,2.3
2023-03-08T05:01:08.699Z,2.2
2023-03-08T05:02:17.427Z,2.5
2023-03-08T05:03:26.032Z,2.7
2023-03-08T05:04:35.788Z,2.6
2023-03-08T05:05:43.419Z,2.6
2023-03-08T05:06:52.111Z,2.5
2023-03-08T05:08:01.841Z,2.3
2023-03-08T05:09:09.536Z,2
2023-03-08T05:10:19.209Z,2.4
2023-03-08T05:11:27.904Z,2.6
2023-03-08T05:12:36.594Z,2
2023-03-08T05:13:46.268Z,2.1
2023-03-08T05:14:53.959Z,2.2
2023-03-08T05:16:02.704Z,2
2023-03-08T05:17:12.349Z,2.6
2023-03-08T05:18:20.035Z,2.4
2023-03-08T05:19:29.717Z,2.2
2023-03-08T05:20:39.447Z,2.1
2023-03-08T05:21:49.175Z,2.5
2023-03-08T05:22:59.477Z,2.5
2023-03-08T05:24:06.485Z,2.7
2023-03-08T05:25:16.202Z,2.1
2023-03-08T05:26:25.884Z,2
2023-03-08T05:27:35.602Z,2.8
2023-03-08T05:28:45.251Z,2.8
2023-03-08T05:29:54.982Z,2.1
2023-03-08T05:31:03.666Z,2.6
2023-03-08T05:32:12.434Z,2.5
2023-03-08T05:33:21.019Z,2.4
2023-03-08T05:34:29.688Z,2.5
2023-03-08T05:35:39.464Z,2.3
2023-03-08T05:36:47.104Z,2.5
2023-03-08T05:37:56.767Z,3
2023-03-08T05:39:05.428Z,2.5
2023-03-08T05:40:13.110Z,2.4
2023-03-08T05:41:22.792Z,2.2
2023-03-08T05:42:32.504Z,2.4
2023-03-08T05:43:42.200Z,3
2023-03-08T05:44:51.917Z,2.4
2023-03-08T05:46:00.761Z,2.7
2023-03-08T05:47:11.390Z,2.8
2023-03-08T05:48:21.047Z,2.4
2023-03-08T05:49:30.723Z,2.5
2023-03-08T05:50:40.417Z,2.5
2023-03-08T05:51:49.079Z,2.5
2023-03-08T05:52:58.740Z,2.9
2023-03-08T05:54:07.396Z,2.1
2023-03-08T05:55:16.069Z,2.9
2023-03-08T05:56:25.755Z,2.3
2023-03-08T05:57:34.414Z,2.1
2023-03-08T05:58:45.612Z,2.5
2023-03-08T05:59:54.783Z,2.8
2023-03-08T06:01:03.419Z,2.4
2023-03-08T06:02:12.109Z,2.8
2023-03-08T06:03:21.803Z,2.5
2023-03-08T06:04:30.452Z,2.4
2023-03-08T06:05:40.160Z,2.6
2023-03-08T06:06:48.822Z,2.3
2023-03-08T06:07:56.513Z,2.6
2023-03-08T06:09:06.191Z,2.6
2023-03-08T06:10:13.893Z,2.8
2023-03-08T06:11:23.618Z,2.7
2023-03-08T06:12:32.271Z,2.3
2023-03-08T06:13:39.937Z,2.6
2023-03-08T06:14:49.673Z,2.7
2023-03-08T06:15:59.437Z,2.6
2023-03-08T06:17:09.063Z,2.9
2023-03-08T06:18:17.728Z,3.2
2023-03-08T06:19:25.399Z,2.6
2023-03-08T06:20:35.090Z,2.6
2023-03-08T06:21:42.754Z,3
2023-03-08T06:22:52.415Z,2.8
2023-03-08T06:24:02.132Z,2.8
2023-03-08T06:25:09.822Z,3.3
2023-03-08T06:26:19.487Z,3.7
2023-03-08T06:27:29.136Z,3
2023-03-08T06:28:37.809Z,3.2
2023-03-08T06:29:47.468Z,3.3
2023-03-08T06:30:56.235Z,3.8
2023-03-08T06:32:04.904Z,3.1
2023-03-08T06:33:14.526Z,2.5
2023-03-08T06:34:24.206Z,2.7
2023-03-08T06:35:33.984Z,2.6
2023-03-08T06:36:42.573Z,2.4
2023-03-08T06:37:51.247Z,1.8
2023-03-08T06:39:00.964Z,2.4
2023-03-08T06:40:08.620Z,2.2
2023-03-08T06:41:17.287Z,2.2
2023-03-08T06:42:39.991Z,2.9
2023-03-08T06:43:35.941Z,2.1
2023-03-08T06:44:45.673Z,2.5
2023-03-08T06:45:55.375Z,2.4
2023-03-08T06:47:03.000Z,2.6
2023-03-08T06:48:12.680Z,2.7
2023-03-08T06:49:21.316Z,2.9
2023-03-08T06:50:31.021Z,2.9
2023-03-08T06:51:40.706Z,3.7
2023-03-08T06:52:49.428Z,2.9
2023-03-08T06:53:59.109Z,2.6
2023-03-08T06:55:07.797Z,2.8
2023-03-08T06:56:16.512Z,2.9
2023-03-08T06:57:26.173Z,3.4
2023-03-08T06:58:34.854Z,3.5
2023-03-08T06:59:43.560Z,2.7
2023-03-08T07:00:53.266Z,3
2023-03-08T07:02:01.942Z,3.3
2023-03-08T07:03:12.614Z,3.5
2023-03-08T07:04:22.541Z,3.1
2023-03-08T07:05:31.065Z,3.3
2023-03-08T07:06:40.744Z,3.6
2023-03-08T07:07:48.412Z,4.2
2023-03-08T07:08:58.089Z,4.5
2023-03-08T07:10:07.744Z,5
2023-03-08T07:11:15.454Z,4.4
2023-03-08T07:12:26.113Z,4.4
2023-03-08T07:13:34.776Z,5.5
2023-03-08T07:14:44.435Z,4.3
2023-03-08T07:15:54.230Z,4.9
2023-03-08T07:17:02.833Z,6
2023-03-08T07:18:14.087Z,4.3
2023-03-08T07:19:23.187Z,4.8
2023-03-08T07:20:32.903Z,4.3
2023-03-08T07:21:42.557Z,4.5
2023-03-08T07:22:51.217Z,4.2
2023-03-08T07:23:59.886Z,4.9
2023-03-08T07:25:09.552Z,4.7
2023-03-08T07:26:17.241Z,4.6
2023-03-08T07:27:26.935Z,5.3
2023-03-08T07:28:36.588Z,4.4
2023-03-08T07:29:45.260Z,4.3
2023-03-08T07:30:54.955Z,3.9
2023-03-08T07:32:03.651Z,4.8
2023-03-08T07:33:12.426Z,5
2023-03-08T07:34:21.993Z,3.4
2023-03-08T07:35:29.729Z,4
2023-03-08T07:36:38.422Z,4.2
2023-03-08T07:37:48.079Z,4.3
2023-03-08T07:38:57.768Z,5.3
2023-03-08T07:40:07.454Z,4.6
2023-03-08T07:41:16.137Z,4.9
2023-03-08T07:42:23.839Z,4.5
2023-03-08T07:43:33.519Z,4.9
2023-03-08T07:44:43.185Z,5.4
2023-03-08T07:45:51.871Z,4.6
2023-03-08T07:47:01.537Z,4.8
2023-03-08T07:48:09.223Z,4.6
2023-03-08T07:49:18.898Z,3.5
2023-03-08T07:50:27.617Z,3.5
2023-03-08T07:51:37.247Z,3.4
2023-03-08T07:52:46.968Z,2.7
2023-03-08T07:53:55.602Z,2.5
2023-03-08T07:55:04.274Z,2.7
2023-03-08T07:56:13.977Z,3
2023-03-08T07:57:23.660Z,3.4
2023-03-08T07:58:32.324Z,3.8
2023-03-08T07:59:40.998Z,3.7
2023-03-08T08:00:48.694Z,3.3
2023-03-08T08:01:58.360Z,3.6
2023-03-08T08:03:06.094Z,3.3
2023-03-08T08:04:14.807Z,3.5
2023-03-08T08:05:24.529Z,3.1
2023-03-08T08:06:32.106Z,2.5
2023-03-08T08:07:41.806Z,1.9
2023-03-08T08:08:51.568Z,2.3
2023-03-08T08:10:01.147Z,2.3
2023-03-08T08:11:10.830Z,2.9
2023-03-08T08:12:19.523Z,2.5
2023-03-08T08:13:29.253Z,3.3
2023-03-08T08:14:37.944Z,2.7
2023-03-08T08:15:46.762Z,2.3
2023-03-08T08:16:56.419Z,2.6
2023-03-08T08:18:06.091Z,2.6
2023-03-08T08:19:15.758Z,2.4
2023-03-08T08:20:25.559Z,2.1
2023-03-08T08:21:34.145Z,2.4
2023-03-08T08:22:42.855Z,2.1
2023-03-08T08:23:52.530Z,2.1
2023-03-08T08:25:01.244Z,2.3
2023-03-08T08:26:10.924Z,9.6
2023-03-08T08:27:19.583Z,2.4
2023-03-08T08:28:29.258Z,3.2
2023-03-08T08:29:37.940Z,2.6
2023-03-08T08:30:47.608Z,2.8
2023-03-08T08:31:57.307Z,2.7
2023-03-08T08:33:05.956Z,2.5
2023-03-08T08:34:15.685Z,2.4
2023-03-08T08:35:34.065Z,1.8
2023-03-08T08:36:35.078Z,2.1
2023-03-08T08:37:44.750Z,1.8
2023-03-08T08:38:53.454Z,1.3
2023-03-08T08:40:02.126Z,1.5
2023-03-08T08:41:11.822Z,2
2023-03-08T08:42:21.486Z,1.9
2023-03-08T08:43:30.154Z,2
2023-03-08T08:44:39.847Z,1.4
2023-03-08T08:45:49.565Z,1.7
2023-03-08T08:46:59.190Z,1.5
2023-03-08T08:48:07.843Z,2
2023-03-08T08:49:17.507Z,1.7
2023-03-08T08:50:27.217Z,1.8
2023-03-08T08:51:35.901Z,1.5
2023-03-08T08:52:44.574Z,1.5
2023-03-08T08:53:54.219Z,1.4
2023-03-08T08:55:01.875Z,1.5
2023-03-08T08:56:20.295Z,2.2
2023-03-08T08:57:22.228Z,1.5
2023-03-08T08:58:30.865Z,1.7
2023-03-08T08:59:40.554Z,1.5
2023-03-08T09:00:49.207Z,1.8
2023-03-08T09:01:57.880Z,1.3
2023-03-08T09:03:07.576Z,1.5
2023-03-08T09:04:16.382Z,1.7
2023-03-08T09:05:26.046Z,1.7
2023-03-08T09:06:34.701Z,1.8
2023-03-08T09:07:45.385Z,1.9
2023-03-08T09:08:55.091Z,1.8
2023-03-08T09:10:04.753Z,2
2023-03-08T09:11:13.478Z,1.9
2023-03-08T09:12:23.209Z,2.2
2023-03-08T09:13:32.886Z,1.9
2023-03-08T09:14:42.534Z,1.6
2023-03-08T09:15:52.184Z,2.4
2023-03-08T09:17:01.003Z,1.9
2023-03-08T09:18:10.632Z,2
2023-03-08T09:19:18.343Z,1.6
2023-03-08T09:20:26.929Z,1.8
2023-03-08T09:21:36.608Z,2
2023-03-08T09:22:45.292Z,1.9
2023-03-08T09:23:54.959Z,1.9
2023-03-08T09:25:03.630Z,2
2023-03-08T09:26:11.302Z,2.3
2023-03-08T09:27:20.992Z,2.3
2023-03-08T09:28:28.654Z,2.2
2023-03-08T09:29:37.356Z,1.9
2023-03-08T09:30:47.024Z,1.9
2023-03-08T09:31:58.599Z,2
2023-03-08T09:33:07.473Z,1.9
2023-03-08T09:34:16.117Z,2.5
2023-03-08T09:35:25.777Z,2.6
2023-03-08T09:36:35.460Z,2.1
2023-03-08T09:37:45.208Z,2.7
2023-03-08T09:38:53.884Z,2.4
2023-03-08T09:40:03.535Z,2.4
2023-03-08T09:41:12.256Z,2.1
2023-03-08T09:42:22.010Z,2.1
2023-03-08T09:43:30.663Z,2.3
2023-03-08T09:44:40.362Z,2.1
2023-03-08T09:45:50.039Z,2.4
2023-03-08T09:46:57.884Z,2.6
2023-03-08T09:48:07.677Z,2.1
2023-03-08T09:49:17.239Z,2.3
2023-03-08T09:50:24.906Z,2.1
2023-03-08T09:51:34.561Z,2.2
2023-03-08T09:52:43.312Z,2.2
2023-03-08T09:53:51.923Z,2.1
2023-03-08T09:55:01.629Z,2
2023-03-08T09:56:11.264Z,1.9
2023-03-08T09:57:20.980Z,1.6
2023-03-08T09:58:30.671Z,1.9
2023-03-08T09:59:40.334Z,2
2023-03-08T10:00:51.075Z,1.9
2023-03-08T10:02:00.708Z,1.9
2023-03-08T10:03:08.428Z,2
2023-03-08T10:04:18.078Z,2.2
2023-03-08T10:05:25.691Z,2.1
2023-03-08T10:06:34.370Z,1.9
2023-03-08T10:07:44.089Z,2.5
2023-03-08T10:08:52.780Z,2.1
2023-03-08T10:10:02.455Z,2.4
2023-03-08T10:11:10.162Z,1.7
2023-03-08T10:12:19.891Z,2
2023-03-08T10:13:29.537Z,2.1
2023-03-08T10:14:38.199Z,1.9
2023-03-08T10:15:47.870Z,2.8
2023-03-08T10:16:56.649Z,2.2
2023-03-08T10:18:06.268Z,2.7
2023-03-08T10:19:15.936Z,2.5
2023-03-08T10:20:24.607Z,2.5
2023-03-08T10:21:34.295Z,2.2
2023-03-08T10:22:42.972Z,2.1
2023-03-08T10:23:51.663Z,2
2023-03-08T10:25:01.365Z,1.9
2023-03-08T10:26:08.985Z,2.4
2023-03-08T10:27:17.693Z,1.9
2023-03-08T10:28:27.361Z,2.9
2023-03-08T10:29:37.030Z,2.4
2023-03-08T10:30:46.808Z,1.9
2023-03-08T10:31:55.356Z,2.3
2023-03-08T10:33:04.091Z,2.5
2023-03-08T10:34:13.724Z,1.9
2023-03-08T10:35:22.405Z,1.9
2023-03-08T10:36:32.098Z,2.2
2023-03-08T10:37:41.837Z,2
2023-03-08T10:38:50.489Z,2
2023-03-08T10:40:00.154Z,1.9
2023-03-08T10:41:09.812Z,2.4
2023-03-08T10:42:18.489Z,2.1
2023-03-08T10:43:28.161Z,2.4
2023-03-08T10:44:37.812Z,1.9
2023-03-08T10:45:47.521Z,2.2
2023-03-08T10:46:57.161Z,1.5
2023-03-08T10:48:06.856Z,2.1
2023-03-08T10:49:16.550Z,2
2023-03-08T10:50:26.894Z,1.9
2023-03-08T10:51:35.576Z,1.9
2023-03-08T10:52:45.281Z,1.9
2023-03-08T10:53:53.951Z,2
2023-03-08T10:55:02.607Z,2
2023-03-08T10:56:11.249Z,2.3
2023-03-08T10:57:18.899Z,1.7
2023-03-08T10:58:28.590Z,1.5
2023-03-08T10:59:37.268Z,2.1
2023-03-08T11:00:44.948Z,1.6
2023-03-08T11:01:54.693Z,2.3
2023-03-08T11:03:02.379Z,1.8
2023-03-08T11:04:12.049Z,1.9
2023-03-08T11:05:21.809Z,1.3
2023-03-08T11:06:31.476Z,1.9
2023-03-08T11:07:41.152Z,1.9
2023-03-08T11:08:50.840Z,1.6
2023-03-08T11:09:59.484Z,2
2023-03-08T11:11:09.224Z,2
2023-03-08T11:12:17.982Z,1.8
2023-03-08T11:13:26.552Z,2.1
2023-03-08T11:14:36.288Z,2.1
2023-03-08T11:15:44.963Z,2.1
2023-03-08T11:16:54.560Z,1.5
2023-03-08T11:18:03.264Z,1.3
2023-03-08T11:19:10.959Z,2.2
2023-03-08T11:20:20.591Z,1.9
2023-03-08T11:21:29.282Z,2.2
2023-03-08T11:22:38.977Z,1.8
2023-03-08T11:23:48.659Z,1.3
2023-03-08T11:24:57.325Z,1.7
2023-03-08T11:26:07.003Z,1.4
2023-03-08T11:27:15.798Z,1.6
2023-03-08T11:28:23.412Z,1.3
2023-03-08T11:29:33.083Z,1.6
2023-03-08T11:30:41.728Z,1.5
2023-03-08T11:31:51.407Z,1.5
2023-03-08T11:33:01.213Z,1.9
2023-03-08T11:34:10.838Z,1.6
2023-03-08T11:35:20.462Z,1.6
2023-03-08T11:36:30.142Z,1.9
2023-03-08T11:37:38.838Z,2.2
2023-03-08T11:38:48.477Z,1.6
2023-03-08T11:39:57.134Z,1.4
2023-03-08T11:41:06.804Z,1.6
2023-03-08T11:42:16.588Z,1.3
2023-03-08T11:43:24.172Z,1.3
2023-03-08T11:44:33.864Z,1.7
2023-03-08T11:45:42.517Z,1.6
2023-03-08T11:46:52.270Z,1.4
2023-03-08T11:48:00.864Z,1.4
2023-03-08T11:49:09.584Z,1.3
2023-03-08T11:50:18.226Z,1.8
2023-03-08T11:51:27.888Z,1.5
2023-03-08T11:52:36.573Z,1.4
2023-03-08T11:53:46.319Z,1.1
2023-03-08T11:54:55.937Z,1.5
2023-03-08T11:56:04.587Z,1.8
2023-03-08T11:57:14.346Z,1.5
2023-03-08T11:58:23.067Z,1.8
2023-03-08T11:59:31.753Z,1.9
2023-03-08T12:00:40.410Z,1.5
2023-03-08T12:01:50.103Z,1.5
2023-03-08T12:02:59.779Z,1
2023-03-08T12:04:09.552Z,1.1
2023-03-08T12:05:18.150Z,1.6
2023-03-08T12:06:29.424Z,1.7
2023-03-08T12:07:37.389Z,1.2
2023-03-08T12:08:47.132Z,1.4
2023-03-08T12:09:55.795Z,1.6
2023-03-08T12:11:05.372Z,1.4
2023-03-08T12:12:15.064Z,1.5
2023-03-08T12:13:23.752Z,1.6
2023-03-08T12:14:33.431Z,1.5
2023-03-08T12:15:43.110Z,1.7
2023-03-08T12:16:52.837Z,1.4
2023-03-08T12:18:02.447Z,1.5
2023-03-08T12:19:10.124Z,1.4
2023-03-08T12:20:18.781Z,1.4
2023-03-08T12:21:28.467Z,1.3
2023-03-08T12:22:37.177Z,1.3
2023-03-08T12:23:46.939Z,1.6
2023-03-08T12:24:56.618Z,1.3
2023-03-08T12:26:06.310Z,1.1
2023-03-08T12:27:15.957Z,1.4
2023-03-08T12:28:24.648Z,1.2
2023-03-08T12:29:33.385Z,1.5
2023-03-08T12:30:43.098Z,1.5
2023-03-08T12:31:50.902Z,1.5
2023-03-08T12:33:00.713Z,1.1
2023-03-08T12:34:11.623Z,1.4
2023-03-08T12:35:18.860Z,1.3
2023-03-08T12:36:28.666Z,1.6
2023-03-08T12:37:37.305Z,1.9
2023-03-08T12:38:46.056Z,1.5
2023-03-08T12:39:55.603Z,1.3
2023-03-08T12:41:05.282Z,1.4
2023-03-08T12:42:15.018Z,0.9
2023-03-08T12:43:24.621Z,1.4
2023-03-08T12:44:33.315Z,1.2
2023-03-08T12:45:43.025Z,0.8
2023-03-08T12:47:02.639Z,1.3
2023-03-08T12:48:04.308Z,1.2
2023-03-08T12:49:13.985Z,1.8
2023-03-08T12:50:23.707Z,1.1
2023-03-08T12:51:33.460Z,1.1
2023-03-08T12:52:42.121Z,0.9
2023-03-08T12:53:50.816Z,0.9
2023-03-08T12:55:00.522Z,1.5
2023-03-08T12:56:10.209Z,1.3
2023-03-08T12:57:19.914Z,1.7
2023-03-08T12:58:29.602Z,1.7
2023-03-08T12:59:38.493Z,1.5
2023-03-08T13:00:47.115Z,1.6
2023-03-08T13:01:55.758Z,1.3
2023-03-08T13:03:04.504Z,1.6
2023-03-08T13:04:14.207Z,1.2
2023-03-08T13:05:22.860Z,1.1
2023-03-08T13:06:31.526Z,1.1
2023-03-08T13:07:41.229Z,1.1
2023-03-08T13:08:49.907Z,1.3
2023-03-08T13:09:59.628Z,0.9
2023-03-08T13:11:09.281Z,1.2
2023-03-08T13:12:17.949Z,1.2
2023-03-08T13:13:37.848Z,1.4
2023-03-08T13:14:38.310Z,5.5
2023-03-08T13:15:46.981Z,8
2023-03-08T13:16:56.728Z,3.8
2023-03-08T13:18:04.326Z,1
2023-03-08T13:19:14.116Z,1.1
2023-03-08T13:20:22.732Z,1.2
2023-03-08T13:21:30.408Z,1.2
2023-03-08T13:22:40.118Z,0.9
2023-03-08T13:23:48.786Z,0.7
2023-03-08T13:24:57.509Z,1
2023-03-08T13:26:07.184Z,0.7
2023-03-08T13:27:15.898Z,0.7
2023-03-08T13:28:26.406Z,0.7
2023-03-08T13:29:35.262Z,0.6
2023-03-08T13:30:43.973Z,0.8
2023-03-08T13:31:53.644Z,0.6
2023-03-08T13:33:01.276Z,0.4
2023-03-08T13:34:09.950Z,0.5
2023-03-08T13:35:19.618Z,1
2023-03-08T13:36:27.306Z,0.8
2023-03-08T13:37:37.008Z,0.4
2023-03-08T13:38:45.686Z,0.4
2023-03-08T13:39:54.393Z,0.2
2023-03-08T13:41:04.056Z,0.3
2023-03-08T13:42:12.721Z,0.3
2023-03-08T13:43:21.383Z,0.2
2023-03-08T13:44:31.049Z,0.6
2023-03-08T13:45:40.750Z,0.6
2023-03-08T13:46:50.376Z,0.3
2023-03-08T13:48:00.063Z,0.6
2023-03-08T13:49:07.705Z,0.5
2023-03-08T13:50:17.469Z,0.5
2023-03-08T13:51:25.150Z,0.2
2023-03-08T13:52:33.814Z,0.2
2023-03-08T13:53:43.504Z,0.3
2023-03-08T13:54:51.160Z,0.2
2023-03-08T13:56:00.827Z,0.2
2023-03-08T13:57:09.551Z,0.3
2023-03-08T13:58:17.279Z,0.4
2023-03-08T13:59:26.908Z,0.3
2023-03-08T14:00:35.758Z,0.2
2023-03-08T14:01:45.349Z,0.3
2023-03-08T14:02:53.970Z,0.3
2023-03-08T14:04:03.792Z,0.3
2023-03-08T14:05:13.394Z,0.3
2023-03-08T14:06:23.088Z,0.2
2023-03-08T14:07:32.768Z,0.3
2023-03-08T14:08:41.423Z,0.2
2023-03-08T14:09:50.103Z,0.3
2023-03-08T14:10:59.783Z,0.2
2023-03-08T14:12:09.535Z,0.1
2023-03-08T14:13:18.104Z,0.2
2023-03-08T14:14:27.867Z,0.4
2023-03-08T14:15:36.566Z,0.4
2023-03-08T14:16:46.135Z,0.6
2023-03-08T14:17:54.813Z,0.3
2023-03-08T14:19:02.469Z,0.3
2023-03-08T14:20:12.145Z,0.3
2023-03-08T14:21:19.933Z,0.3
2023-03-08T14:22:39.059Z,0.2
2023-03-08T14:23:39.264Z,0.3
2023-03-08T14:24:47.880Z,0.2
2023-03-08T14:25:57.557Z,0.3
2023-03-08T14:27:06.251Z,0.4
2023-03-08T14:28:14.912Z,0.3
2023-03-08T14:29:24.622Z,0.3
2023-03-08T14:30:32.243Z,0.3
2023-03-08T14:31:42.021Z,0.3
2023-03-08T14:32:51.665Z,0.2
2023-03-08T14:34:00.329Z,0.4
2023-03-08T14:35:09.962Z,0.3
2023-03-08T14:36:18.616Z,0.2
2023-03-08T14:37:26.302Z,0.4
2023-03-08T14:38:35.971Z,0.6
2023-03-08T14:39:43.649Z,0.3
2023-03-08T14:40:52.348Z,0.2
2023-03-08T14:42:02.077Z,0.2
2023-03-08T14:43:09.742Z,0.3
2023-03-08T14:44:19.436Z,0.4
2023-03-08T14:45:29.152Z,0.3
2023-03-08T14:46:37.813Z,0.5
2023-03-08T14:47:47.617Z,0.5
2023-03-08T14:48:55.318Z,0.5
2023-03-08T14:50:04.043Z,0.6
2023-03-08T14:51:13.654Z,0.5
2023-03-08T14:52:22.344Z,0.4
2023-03-08T14:53:32.084Z,0.5
2023-03-08T14:54:39.694Z,0.8
2023-03-08T14:55:47.372Z,0.5
2023-03-08T14:56:56.028Z,0.3
2023-03-08T14:58:04.670Z,0.4
2023-03-08T14:59:26.725Z,0.3
2023-03-08T15:00:25.017Z,0.3
2023-03-08T15:01:32.795Z,0.3
2023-03-08T15:02:41.329Z,0.2
2023-03-08T15:03:51.077Z,0.2
2023-03-08T15:05:00.700Z,0.3
2023-03-08T15:06:10.423Z,0.3
2023-03-08T15:07:20.072Z,0.5
2023-03-08T15:08:29.726Z,0.3
2023-03-08T15:09:39.408Z,0.4
2023-03-08T15:10:48.089Z,0.3
2023-03-08T15:11:57.757Z,0.4
2023-03-08T15:13:07.433Z,0.3
2023-03-08T15:14:16.091Z,0.4
2023-03-08T15:15:25.779Z,0.6
2023-03-08T15:16:35.514Z,0.6
2023-03-08T15:17:44.894Z,0.4
2023-03-08T15:18:54.556Z,0.5
2023-03-08T15:20:04.226Z,0.6
2023-03-08T15:21:13.948Z,0.3
2023-03-08T15:22:23.587Z,0.3
2023-03-08T15:23:32.253Z,0.3
2023-03-08T15:24:40.925Z,0.3
2023-03-08T15:25:49.615Z,0.2
2023-03-08T15:26:59.262Z,0.2
2023-03-08T15:28:08.921Z,0.2
2023-03-08T15:29:17.615Z,0.3
2023-03-08T15:30:27.301Z,0.3
2023-03-08T15:31:35.995Z,0.3
2023-03-08T15:32:43.638Z,0.3
2023-03-08T15:33:53.297Z,0.6
2023-03-08T15:35:00.961Z,0.6
2023-03-08T15:36:10.675Z,0.7
2023-03-08T15:37:20.325Z,0.6
2023-03-08T15:38:28.952Z,0.3
2023-03-08T15:39:38.615Z,0.6
2023-03-08T15:40:47.314Z,0.6
2023-03-08T15:41:55.967Z,0.7
2023-03-08T15:43:05.642Z,0.8
2023-03-08T15:44:13.289Z,0.7
2023-03-08T15:45:21.990Z,0.7
2023-03-08T15:46:31.708Z,0.7
2023-03-08T15:47:40.327Z,0.5
2023-03-08T15:48:50.008Z,0.4
2023-03-08T15:49:58.658Z,0.4
2023-03-08T15:51:07.335Z,0.2
2023-03-08T15:52:17.002Z,0.2
2023-03-08T15:53:35.154Z,0.3
2023-03-08T15:54:37.307Z,0.4
2023-03-08T15:55:46.979Z,0.5
2023-03-08T15:56:56.726Z,0.5
2023-03-08T15:58:08.199Z,0.5
2023-03-08T15:59:16.067Z,0.5
2023-03-08T16:00:25.734Z,0.7